createdAt,value
2022-08-16T00:02:23.580Z,17.55
2022-08-16T00:04:53.844Z,17.47
2022-08-16T00:07:30.920Z,17.38
2022-08-16T00:09:59.598Z,17.57
2022-08-16T00:12:29.157Z,17.30
2022-08-16T00:15:00.913Z,17.52
2022-08-16T00:17:29.107Z,17.81
2022-08-16T00:20:21.396Z,17.87
2022-08-16T00:22:54.495Z,18.20
2022-08-16T00:26:33.390Z,17.94
2022-08-16T00:28:14.114Z,17.95
2022-08-16T00:30:42.847Z,17.95
2022-08-16T00:33:13.379Z,18.30
2022-08-16T00:35:41.396Z,18.31
2022-08-16T00:38:40.492Z,18.22
2022-08-16T00:41:02.712Z,18.17
2022-08-16T00:43:40.830Z,18.01
2022-08-16T00:46:33.533Z,17.97
2022-08-16T00:49:02.521Z,18.07
2022-08-16T00:51:30.696Z,17.75
2022-08-16T00:54:03.052Z,17.66
2022-08-16T00:56:56.196Z,17.66
2022-08-16T00:59:26.178Z,17.49
2022-08-16T01:01:54.584Z,17.48
2022-08-16T01:04:29.177Z,17.37
2022-08-16T01:07:03.031Z,17.44
2022-08-16T01:09:34.349Z,17.35
2022-08-16T01:12:08.623Z,17.14
2022-08-16T01:14:41.467Z,17.02
2022-08-16T01:17:13.944Z,17.21
2022-08-16T01:19:43.780Z,17.05
2022-08-16T01:22:47.164Z,17.07
2022-08-16T01:25:10.856Z,17.11
2022-08-16T01:27:42.765Z,16.93
2022-08-16T01:30:19.406Z,17.07
2022-08-16T01:33:02.190Z,17.30
2022-08-16T01:35:39.784Z,17.69
2022-08-16T01:38:19.661Z,16.46
2022-08-16T01:40:51.278Z,16.23
2022-08-16T01:43:19.983Z,16.18
2022-08-16T01:45:57.884Z,15.89
2022-08-16T01:48:32.446Z,15.80
2022-08-16T01:51:16.269Z,16.08
2022-08-16T01:53:45.337Z,16.16
2022-08-16T01:56:33.226Z,16.12
2022-08-16T01:59:06.952Z,16.22
2022-08-16T02:01:49.538Z,16.47
2022-08-16T02:04:48.835Z,16.25
2022-08-16T02:07:11.150Z,16.36
2022-08-16T02:09:42.432Z,16.03
2022-08-16T02:12:42.122Z,16.31
2022-08-16T02:15:17.829Z,16.08
2022-08-16T02:17:54.426Z,15.99
2022-08-16T02:20:26.330Z,16.32
2022-08-16T02:22:57.277Z,16.39
2022-08-16T02:25:52.121Z,16.27
2022-08-16T02:28:19.316Z,16.27
2022-08-16T02:30:51.662Z,16.21
2022-08-16T02:33:24.248Z,16.17
2022-08-16T02:35:59.937Z,16.23
2022-08-16T02:38:31.482Z,16.04
2022-08-16T02:41:07.360Z,16.01
2022-08-16T02:43:40.871Z,16.09
2022-08-16T02:46:10.766Z,16.15
2022-08-16T02:48:47.452Z,16.22
2022-08-16T02:51:18.952Z,16.01
2022-08-16T02:53:52.261Z,15.99
2022-08-16T02:56:22.699Z,16.16
2022-08-16T02:58:54.640Z,16.11
2022-08-16T03:01:37.320Z,16.20
2022-08-16T03:04:41.499Z,16.06
2022-08-16T03:07:11.567Z,16.10
2022-08-16T03:09:45.396Z,16.06
2022-08-16T03:12:17.709Z,16.08
2022-08-16T03:14:51.280Z,15.90
2022-08-16T03:17:22.816Z,15.95
2022-08-16T03:20:03.170Z,15.90
2022-08-16T03:22:39.590Z,15.84
2022-08-16T03:25:17.184Z,15.94
2022-08-16T03:27:56.432Z,15.78
2022-08-16T03:30:33.293Z,15.89
2022-08-16T03:33:05.103Z,15.75
2022-08-16T03:35:44.300Z,15.81
2022-08-16T03:38:35.020Z,15.53
2022-08-16T03:41:25.314Z,15.51
2022-08-16T03:44:00.596Z,15.43
2022-08-16T03:46:47.825Z,15.26
2022-08-16T03:49:36.476Z,15.21
2022-08-16T03:52:07.393Z,15.16
2022-08-16T03:54:38.167Z,15.26
2022-08-16T03:57:20.733Z,15.19
2022-08-16T03:59:52.426Z,15.27
2022-08-16T04:02:31.604Z,15.37
2022-08-16T04:05:02.106Z,15.89
2022-08-16T04:07:33.832Z,16.15
2022-08-16T04:10:11.432Z,15.65
2022-08-16T04:12:54.930Z,15.48
2022-08-16T04:15:26.302Z,15.48
2022-08-16T04:18:11.172Z,15.58
2022-08-16T04:20:43.335Z,15.93
2022-08-16T04:23:11.909Z,15.70
2022-08-16T04:25:43.412Z,15.78
2022-08-16T04:28:51.967Z,15.60
2022-08-16T04:31:07.398Z,15.78
2022-08-16T04:33:51.108Z,16.27
2022-08-16T04:36:21.830Z,16.47
2022-08-16T04:38:50.723Z,16.02
2022-08-16T04:41:32.661Z,16.42
2022-08-16T04:44:30.977Z,16.05
2022-08-16T04:47:00.874Z,16.22
2022-08-16T04:49:43.735Z,15.89
2022-08-16T04:52:33.518Z,15.95
2022-08-16T04:55:13.447Z,15.94
2022-08-16T04:57:45.311Z,16.23
2022-08-16T05:00:32.058Z,15.90
2022-08-16T05:03:31.289Z,15.85
2022-08-16T05:06:05.199Z,16.01
2022-08-16T05:08:35.898Z,16.04
2022-08-16T05:11:15.083Z,16.13
2022-08-16T05:13:47.969Z,16.28
2022-08-16T05:16:24.310Z,16.27
2022-08-16T05:19:00.515Z,16.18
2022-08-16T05:21:37.961Z,16.67
2022-08-16T05:24:08.939Z,16.91
2022-08-16T05:26:43.066Z,17.05
2022-08-16T05:29:14.786Z,17.25
2022-08-16T05:31:53.395Z,16.60
2022-08-16T05:34:22.958Z,16.65
2022-08-16T05:36:57.417Z,16.66
2022-08-16T05:39:33.518Z,16.76
2022-08-16T05:42:09.664Z,16.72
2022-08-16T05:44:39.928Z,16.49
2022-08-16T05:47:15.162Z,16.87
2022-08-16T05:49:46.008Z,16.92
2022-08-16T05:52:20.989Z,16.99
2022-08-16T05:55:01.018Z,17.22
2022-08-16T05:57:34.613Z,17.84
2022-08-16T06:00:09.338Z,20.68
2022-08-16T06:02:41.370Z,18.49
2022-08-16T06:05:41.722Z,18.01
2022-08-16T06:08:32.190Z,18.18
2022-08-16T06:11:10.115Z,17.66
2022-08-16T06:13:42.108Z,18.36
2022-08-16T06:16:18.590Z,21.81
2022-08-16T06:18:52.007Z,21.28
2022-08-16T06:21:22.881Z,23.43
2022-08-16T06:23:56.847Z,23.05
2022-08-16T06:26:34.742Z,22.21
2022-08-16T06:29:07.705Z,19.51
2022-08-16T06:31:49.236Z,19.05
2022-08-16T06:34:54.965Z,19.61
2022-08-16T06:37:13.332Z,19.49
2022-08-16T06:39:49.646Z,19.90
2022-08-16T06:42:47.027Z,19.50
2022-08-16T06:45:37.856Z,20.92
2022-08-16T06:48:18.844Z,21.81
2022-08-16T06:50:50.124Z,21.24
2022-08-16T06:53:19.703Z,19.68
2022-08-16T06:56:05.956Z,19.47
2022-08-16T06:59:03.585Z,20.02
2022-08-16T07:01:43.446Z,20.76
2022-08-16T07:04:28.123Z,19.71
2022-08-16T07:07:05.564Z,19.93
2022-08-16T07:09:34.520Z,19.68
2022-08-16T07:12:05.900Z,20.09
2022-08-16T07:14:37.086Z,20.05
2022-08-16T07:17:08.414Z,20.70
2022-08-16T07:20:03.382Z,20.70
2022-08-16T07:22:43.111Z,20.06
2022-08-16T07:25:35.037Z,20.21
2022-08-16T07:28:24.554Z,20.72
2022-08-16T07:30:55.874Z,20.78
2022-08-16T07:33:52.866Z,20.53
2022-08-16T07:36:29.240Z,20.48
2022-08-16T07:39:00.025Z,20.80
2022-08-16T07:41:34.155Z,20.75
2022-08-16T07:44:15.447Z,21.05
2022-08-16T07:46:45.444Z,21.12
2022-08-16T07:49:20.296Z,21.43
2022-08-16T07:51:49.031Z,21.71
2022-08-16T07:54:37.867Z,21.75
2022-08-16T07:57:11.708Z,21.12
2022-08-16T07:59:46.093Z,21.50
2022-08-16T08:02:20.351Z,21.55
2022-08-16T08:04:53.245Z,21.52
2022-08-16T08:07:21.967Z,22.32
2022-08-16T08:09:53.330Z,21.88
2022-08-16T08:12:31.623Z,22.20
2022-08-16T08:15:09.895Z,22.33
2022-08-16T08:17:42.934Z,22.05
2022-08-16T08:20:23.279Z,22.32
2022-08-16T08:23:00.126Z,22.07
2022-08-16T08:25:55.141Z,22.56
2022-08-16T08:28:20.462Z,23.22
2022-08-16T08:31:01.365Z,22.72
2022-08-16T08:33:34.022Z,22.57
2022-08-16T08:36:11.446Z,22.55
2022-08-16T08:38:52.320Z,23.01
2022-08-16T08:43:57.684Z,22.86
2022-08-16T08:46:35.669Z,23.06
2022-08-16T08:49:08.721Z,22.67
2022-08-16T08:51:42.376Z,23.44
2022-08-16T08:54:20.516Z,23.26
2022-08-16T08:56:53.371Z,23.62
2022-08-16T08:59:46.102Z,23.48
2022-08-16T09:02:19.427Z,23.81
2022-08-16T09:04:53.139Z,24.25
2022-08-16T09:07:23.934Z,24.28
2022-08-16T09:10:06.295Z,23.59
2022-08-16T09:12:38.829Z,23.45
2022-08-16T09:15:13.551Z,23.79
2022-08-16T09:17:51.687Z,23.92
2022-08-16T09:20:25.883Z,24.32
2022-08-16T09:22:55.767Z,24.43
2022-08-16T09:25:33.835Z,23.82
2022-08-16T09:28:09.344Z,24.10
2022-08-16T09:30:45.096Z,23.80
2022-08-16T09:33:20.061Z,24.19
2022-08-16T09:35:53.337Z,24.16
2022-08-16T09:38:31.913Z,23.92
2022-08-16T09:41:02.424Z,23.73
2022-08-16T09:43:58.467Z,24.63
2022-08-16T09:46:48.741Z,23.67
2022-08-16T09:49:16.686Z,23.84
2022-08-16T09:51:53.414Z,23.91
2022-08-16T09:54:22.204Z,24.62
2022-08-16T09:56:53.835Z,24.60
2022-08-16T09:59:25.412Z,23.80
2022-08-16T10:01:59.008Z,24.10
2022-08-16T10:04:35.676Z,24.36
2022-08-16T10:07:15.892Z,24.90
2022-08-16T10:09:54.969Z,24.49
2022-08-16T10:12:44.160Z,24.92
2022-08-16T10:15:15.408Z,24.45
2022-08-16T10:18:00.697Z,25.28
2022-08-16T10:20:34.523Z,24.47
2022-08-16T10:23:08.366Z,24.45
2022-08-16T10:27:17.953Z,24.40
2022-08-16T10:28:32.462Z,25.34
2022-08-16T10:31:12.084Z,25.45
2022-08-16T10:33:47.651Z,26.51
2022-08-16T10:36:38.686Z,26.20
2022-08-16T10:39:08.501Z,26.12
2022-08-16T10:41:37.133Z,25.64
2022-08-16T10:44:09.517Z,25.04
2022-08-16T10:46:41.562Z,26.21
2022-08-16T10:49:16.804Z,26.51
2022-08-16T10:52:01.647Z,27.46
2022-08-16T10:54:58.400Z,26.98
2022-08-16T10:57:24.858Z,26.68
2022-08-16T11:00:04.062Z,26.79
2022-08-16T11:03:00.445Z,26.51
2022-08-16T11:05:21.309Z,26.82
2022-08-16T11:07:53.338Z,26.71
2022-08-16T11:13:57.279Z,26.37
2022-08-16T11:19:04.176Z,26.49
2022-08-16T11:21:37.625Z,26.65
2022-08-16T11:24:41.945Z,26.16
2022-08-16T11:27:23.295Z,26.01
2022-08-16T11:29:55.552Z,26.82
2022-08-16T11:32:31.310Z,26.37
2022-08-16T11:35:11.152Z,26.44
2022-08-16T11:40:44.174Z,26.47
2022-08-16T11:43:16.684Z,26.53
2022-08-16T11:45:53.862Z,27.20
2022-08-16T11:48:24.585Z,26.55
2022-08-16T11:50:53.286Z,25.92
2022-08-16T11:53:22.188Z,26.39
2022-08-16T11:55:55.066Z,26.54
2022-08-16T11:58:25.341Z,27.01
2022-08-16T12:00:57.446Z,27.37
2022-08-16T12:03:34.648Z,26.57
2022-08-16T12:06:10.734Z,27.53
2022-08-16T12:08:42.629Z,27.50
2022-08-16T12:11:14.624Z,26.49
2022-08-16T12:13:46.910Z,25.83
2022-08-16T12:16:17.597Z,27.27
2022-08-16T12:21:23.211Z,27.77
2022-08-16T12:23:51.541Z,27.02
2022-08-16T12:26:23.598Z,28.01
2022-08-16T12:28:55.908Z,28.02
2022-08-16T12:31:26.186Z,27.82
2022-08-16T12:33:57.631Z,28.19
2022-08-16T12:36:30.351Z,27.14
2022-08-16T12:38:59.406Z,27.10
2022-08-16T12:41:29.092Z,27.09
2022-08-16T12:44:04.234Z,27.54
2022-08-16T12:46:33.660Z,28.39
2022-08-16T12:49:01.949Z,27.77
2022-08-16T12:51:58.400Z,28.34
2022-08-16T12:54:25.805Z,27.27
2022-08-16T12:56:56.109Z,27.74
2022-08-16T12:59:24.826Z,27.85
2022-08-16T13:02:00.686Z,28.02
2022-08-16T13:04:31.375Z,28.26
2022-08-16T13:09:37.736Z,27.93
2022-08-16T13:12:19.864Z,27.67
2022-08-16T13:14:50.370Z,27.39
2022-08-16T13:17:23.942Z,27.78
2022-08-16T13:20:12.601Z,28.73
2022-08-16T13:22:46.464Z,27.65
2022-08-16T13:25:21.419Z,27.70
2022-08-16T13:28:01.681Z,27.91
2022-08-16T13:30:40.990Z,28.15
2022-08-16T13:33:13.426Z,27.08
2022-08-16T13:35:45.348Z,27.45
2022-08-16T13:38:25.219Z,27.84
2022-08-16T13:40:56.572Z,27.13
2022-08-16T13:43:31.059Z,27.43
2022-08-16T13:46:04.518Z,27.52
2022-08-16T13:48:42.741Z,28.54
2022-08-16T13:51:15.679Z,28.84
2022-08-16T13:53:54.563Z,28.84
2022-08-16T13:56:31.758Z,28.76
2022-08-16T13:59:14.299Z,29.43
2022-08-16T14:01:54.593Z,29.19
2022-08-16T14:04:27.192Z,28.56
2022-08-16T14:06:57.535Z,28.52
2022-08-16T14:09:28.286Z,29.31
2022-08-16T14:11:57.673Z,28.75
2022-08-16T14:14:29.639Z,28.25
2022-08-16T14:16:59.392Z,27.32
2022-08-16T14:19:29.237Z,28.19
2022-08-16T14:22:14.639Z,28.41
2022-08-16T14:24:48.478Z,28.16
2022-08-16T14:27:17.808Z,28.04
2022-08-16T14:29:51.309Z,28.34
2022-08-16T14:32:33.381Z,28.13
2022-08-16T14:35:08.331Z,28.15
2022-08-16T14:37:37.493Z,29.60
2022-08-16T14:40:07.101Z,29.52
2022-08-16T14:42:36.642Z,29.28
2022-08-16T14:45:08.804Z,28.49
2022-08-16T14:47:38.319Z,29.40
2022-08-16T14:50:09.192Z,29.57
2022-08-16T14:52:55.163Z,29.18
2022-08-16T14:55:28.363Z,29.13
2022-08-16T14:57:57.543Z,28.12
2022-08-16T15:00:33.243Z,28.77
2022-08-16T15:03:10.512Z,28.42
2022-08-16T15:05:40.621Z,29.52
2022-08-16T15:08:10.249Z,29.67
2022-08-16T15:10:44.903Z,29.60
2022-08-16T15:13:15.330Z,29.12
2022-08-16T15:15:56.271Z,29.61
2022-08-16T15:18:31.556Z,29.46
2022-08-16T15:21:02.050Z,29.16
2022-08-16T15:23:33.678Z,29.64
2022-08-16T15:26:04.386Z,29.76
2022-08-16T15:28:38.063Z,29.91
2022-08-16T15:31:10.362Z,29.89
2022-08-16T15:33:48.511Z,29.52
2022-08-16T15:36:21.941Z,29.96
2022-08-16T15:39:05.812Z,29.20
2022-08-16T15:42:11.069Z,29.61
2022-08-16T15:44:51.297Z,29.81
2022-08-16T15:47:26.223Z,29.94
2022-08-16T15:49:55.908Z,28.81
2022-08-16T15:52:29.546Z,28.67
2022-08-16T15:55:13.130Z,28.41
2022-08-16T15:57:51.167Z,28.67
2022-08-16T16:00:21.058Z,28.59
2022-08-16T16:03:00.096Z,28.32
2022-08-16T16:05:29.578Z,28.55
2022-08-16T16:08:10.765Z,28.28
2022-08-16T16:10:41.824Z,28.55
2022-08-16T16:13:11.572Z,28.97
2022-08-16T16:15:43.188Z,28.63
2022-08-16T16:18:13.597Z,28.51
2022-08-16T16:20:46.967Z,28.43
2022-08-16T16:23:17.459Z,28.38
2022-08-16T16:25:46.840Z,29.23
2022-08-16T16:29:05.011Z,28.00
2022-08-16T16:31:06.642Z,28.12
2022-08-16T16:33:39.730Z,28.20
2022-08-16T16:36:09.335Z,28.57
2022-08-16T16:38:39.287Z,28.37
2022-08-16T16:41:11.281Z,28.09
2022-08-16T16:43:41.550Z,28.30
2022-08-16T16:46:40.940Z,28.24
2022-08-16T16:49:04.101Z,28.33
2022-08-16T16:51:40.803Z,28.19
2022-08-16T16:54:12.883Z,28.32
2022-08-16T16:56:46.042Z,28.37
2022-08-16T16:59:18.216Z,28.29
2022-08-16T17:01:59.900Z,28.37
2022-08-16T17:04:39.026Z,28.08
2022-08-16T17:07:10.770Z,28.45
2022-08-16T17:09:40.553Z,29.83
2022-08-16T17:12:09.925Z,29.60
2022-08-16T17:14:53.615Z,28.36
2022-08-16T17:17:22.325Z,28.19
2022-08-16T17:19:52.783Z,28.11
2022-08-16T17:22:23.701Z,28.02
2022-08-16T17:25:01.786Z,27.80
2022-08-16T17:27:33.498Z,27.60
2022-08-16T17:30:02.815Z,27.49
2022-08-16T17:32:47.919Z,27.59
2022-08-16T17:35:19.250Z,27.37
2022-08-16T17:37:51.703Z,27.36
2022-08-16T17:40:40.655Z,27.37
2022-08-16T17:43:10.497Z,27.25
2022-08-16T17:45:39.156Z,27.14
2022-08-16T17:48:07.791Z,27.02
2022-08-16T17:50:37.634Z,27.01
2022-08-16T17:53:06.144Z,26.88
2022-08-16T17:55:35.183Z,26.82
2022-08-16T17:58:18.089Z,26.73
2022-08-16T18:00:52.125Z,26.65
2022-08-16T18:03:24.205Z,26.46
2022-08-16T18:06:12.461Z,26.42
2022-08-16T18:08:41.396Z,26.20
2022-08-16T18:11:13.379Z,26.13
2022-08-16T18:13:43.085Z,25.77
2022-08-16T18:16:11.755Z,25.74
2022-08-16T18:18:42.676Z,25.51
2022-08-16T18:21:32.729Z,25.51
2022-08-16T18:24:00.865Z,25.40
2022-08-16T18:26:29.105Z,25.46
2022-08-16T18:28:57.191Z,25.48
2022-08-16T18:31:25.509Z,25.44
2022-08-16T18:33:55.661Z,25.31
2022-08-16T18:36:25.395Z,25.16
2022-08-16T18:38:54.604Z,25.07
2022-08-16T18:41:24.037Z,24.86
2022-08-16T18:43:55.463Z,24.84
2022-08-16T18:46:40.887Z,24.89
2022-08-16T18:49:09.252Z,24.84
2022-08-16T18:51:42.683Z,24.86
2022-08-16T18:54:11.810Z,24.86
2022-08-16T18:56:56.549Z,24.75
2022-08-16T18:59:28.952Z,24.55
2022-08-16T19:02:00.429Z,24.66
2022-08-16T19:04:56.349Z,24.56
2022-08-16T19:07:29.587Z,24.43
2022-08-16T19:10:01.912Z,24.19
2022-08-16T19:12:47.153Z,24.18
2022-08-16T19:15:18.364Z,24.15
2022-08-16T19:17:48.455Z,23.99
2022-08-16T19:20:23.346Z,23.96
2022-08-16T19:23:11.001Z,23.94
2022-08-16T19:25:47.514Z,23.96
2022-08-16T19:28:49.737Z,23.93
2022-08-16T19:31:13.260Z,24.01
2022-08-16T19:33:53.706Z,23.93
2022-08-16T19:36:31.876Z,23.79
2022-08-16T19:39:08.610Z,23.48
2022-08-16T19:41:39.387Z,23.17
2022-08-16T19:44:08.572Z,22.96
2022-08-16T19:46:37.805Z,22.62
2022-08-16T19:49:06.694Z,22.40
2022-08-16T19:51:35.108Z,22.46
2022-08-16T19:54:05.164Z,22.80
2022-08-16T19:56:33.563Z,22.55
2022-08-16T19:59:18.572Z,22.42
2022-08-16T20:01:51.023Z,22.08
2022-08-16T20:04:19.653Z,22.51
2022-08-16T20:06:48.224Z,22.49
2022-08-16T20:09:18.472Z,22.02
2022-08-16T20:11:47.649Z,22.09
2022-08-16T20:14:24.717Z,22.31
2022-08-16T20:16:56.894Z,22.32
2022-08-16T20:19:27.141Z,22.19
2022-08-16T20:21:57.167Z,22.20
2022-08-16T20:24:36.505Z,22.03
2022-08-16T20:27:09.382Z,22.09
2022-08-16T20:29:40.163Z,22.20
2022-08-16T20:32:13.159Z,22.08
2022-08-16T20:34:42.468Z,21.84
2022-08-16T20:37:12.651Z,22.04
2022-08-16T20:39:44.159Z,21.88
2022-08-16T20:42:13.665Z,21.65
2022-08-16T20:44:42.969Z,21.79
2022-08-16T20:47:11.442Z,21.81
2022-08-16T20:49:39.798Z,21.82
2022-08-16T20:52:10.752Z,21.42
2022-08-16T20:54:39.982Z,21.22
2022-08-16T20:57:09.786Z,21.14
2022-08-16T20:59:39.778Z,21.04
2022-08-16T21:02:10.414Z,21.26
2022-08-16T21:04:38.809Z,20.70
2022-08-16T21:07:07.800Z,20.78
2022-08-16T21:09:37.811Z,20.49
2022-08-16T21:12:10.481Z,20.30
2022-08-16T21:14:42.929Z,20.31
2022-08-16T21:17:13.236Z,20.24
2022-08-16T21:19:42.129Z,20.67
2022-08-16T21:22:15.225Z,20.90
2022-08-16T21:24:44.204Z,20.69
2022-08-16T21:27:17.546Z,20.42
2022-08-16T21:29:46.832Z,20.60
2022-08-16T21:32:34.660Z,20.42
2022-08-16T21:35:08.861Z,20.64
2022-08-16T21:37:37.542Z,19.94
2022-08-16T21:40:07.171Z,20.65
2022-08-16T21:42:39.502Z,20.62
2022-08-16T21:45:14.416Z,20.40
2022-08-16T21:47:43.503Z,20.44
2022-08-16T21:50:13.329Z,20.55
2022-08-16T21:52:41.946Z,20.23
2022-08-16T21:55:11.644Z,19.70
2022-08-16T21:57:43.839Z,19.84
2022-08-16T22:02:39.122Z,19.88
2022-08-16T22:05:08.411Z,19.97
2022-08-16T22:07:37.218Z,19.54
2022-08-16T22:11:04.583Z,19.54
2022-08-16T22:12:57.750Z,19.07
2022-08-16T22:15:27.109Z,19.62
2022-08-16T22:18:01.628Z,19.49
2022-08-16T22:20:30.884Z,19.64
2022-08-16T22:23:08.269Z,19.09
2022-08-16T22:25:37.021Z,19.32
2022-08-16T22:28:06.893Z,19.46
2022-08-16T22:30:35.799Z,19.16
2022-08-16T22:33:11.046Z,19.22
2022-08-16T22:35:45.226Z,19.28
2022-08-16T22:38:54.248Z,18.93
2022-08-16T22:41:05.084Z,18.92
2022-08-16T22:43:34.007Z,18.87
2022-08-16T22:46:02.374Z,19.03
2022-08-16T22:48:32.141Z,19.03
2022-08-16T22:51:07.952Z,19.07
2022-08-16T22:53:37.364Z,19.00
2022-08-16T22:56:06.080Z,18.50
2022-08-16T22:58:37.357Z,18.88
2022-08-16T23:01:06.312Z,18.64
2022-08-16T23:03:36.552Z,18.39
2022-08-16T23:06:05.865Z,18.65
2022-08-16T23:08:40.005Z,19.05
2022-08-16T23:11:11.039Z,18.95
2022-08-16T23:13:50.059Z,18.37
2022-08-16T23:16:32.411Z,18.59
2022-08-16T23:19:03.252Z,18.51
2022-08-16T23:21:32.018Z,18.52
2022-08-16T23:24:00.469Z,18.44
2022-08-16T23:26:46.652Z,18.18
2022-08-16T23:29:24.524Z,18.61
2022-08-16T23:31:56.251Z,18.57
2022-08-16T23:34:28.144Z,18.81
2022-08-16T23:36:56.809Z,18.59
2022-08-16T23:39:25.717Z,18.60
2022-08-16T23:41:54.188Z,18.67
2022-08-16T23:44:54.939Z,18.68
2022-08-16T23:47:11.265Z,18.61
2022-08-16T23:49:56.713Z,18.49
2022-08-16T23:52:39.312Z,18.02
2022-08-16T23:55:17.392Z,18.06
2022-08-16T23:57:47.137Z,17.98
